tititudorancea.com
Station Historical Data
Daily Summary for April 5, 2018 Units:  Metric    English   Both
« Previous Day
Next Day »
Daily Weekly Monthly Yearly Custom
  High: Low: Average:
Temperature: -17.8 °C 9.4 °C 13.4 °C
Dew Point: -17.8 °C 6.6 °C 9 °C
Humidity: Humidity % 39 % 78 %
Wind Speed: 0 km/h 0.5 km/h 8 km/h
Wind Gust: 0 km/h - -
Wind:- - SW
Pressure: 0 hPa 1013.8 hPa -
Precipitation: 0 mm    
Historical Graphs
 
 
Ararat weather Find more about Weather in Ararat, AU


 



 


Tabular Data for April 5, 2018
Time Temperature Dew Point Pressure Wind Wind Speed Wind Gust Humidity Rainfall Rate (Hourly)
-17.8 °C -17.8 °C 0 hPa Calm     Humidity % 0 mm
00:00 10.8 °C 9.4 °C 1015.8 hPa SSW 8.2 km/h 11.1 km/h 91 % 0 mm
00:05 10.7 °C 9.3 °C 1015.8 hPa SSW 5.5 km/h 9.3 km/h 91 % 0 mm
00:10 10.6 °C 9.2 °C 1015.5 hPa SSW 7.1 km/h 12.9 km/h 91 % 0 mm
00:15 10.6 °C 9.2 °C 1015.5 hPa SSW 6 km/h 11.1 km/h 91 % 0 mm
00:20 10.5 °C 9.3 °C 1015.1 hPa SSW 6.4 km/h 7.4 km/h 92 % 0 mm
00:25 10.5 °C 9.3 °C 1015.1 hPa North 7.7 km/h 13 km/h 92 % 0 mm
00:30 10.4 °C 9.2 °C 1015.1 hPa SSW 6.3 km/h 7.4 km/h 92 % 0 mm
00:35 10.4 °C 9.2 °C 1015.1 hPa SSW 13.8 km/h 16.7 km/h 92 % 0 mm
00:40 10.4 °C 9.2 °C 1015.1 hPa SSW 8.2 km/h 13 km/h 92 % 0 mm
00:45 10.4 °C 9.2 °C 1015.1 hPa SSW 4.2 km/h 11.1 km/h 92 % 0 mm
00:50 10.3 °C 9.1 °C 1015.1 hPa North 5.1 km/h 9.3 km/h 92 % 0 mm
00:55 10.4 °C 9.3 °C 1015.1 hPa North 7.9 km/h 17.7 km/h 93 % 0 mm
01:00 10.4 °C 9.3 °C 1015.1 hPa North 7.9 km/h 13 km/h 93 % 0 mm
01:05 10.4 °C 9.3 °C 1015.1 hPa North 6.1 km/h 9.3 km/h 93 % 0 mm
01:10 10.3 °C 9.2 °C 1015.1 hPa SSW 7.7 km/h 11.1 km/h 93 % 0 mm
01:15 10.2 °C 9.1 °C 1015.1 hPa North 12.7 km/h 18.5 km/h 93 % 0 mm
01:16 10.2 °C 9.1 °C 1015.1 hPa SSW 9.2 km/h 18.5 km/h 93 % 0 mm
01:21 10.1 °C 9.1 °C 1014.8 hPa SSW 7.7 km/h 14.8 km/h 93 % 0 mm
01:26 10.1 °C 9.2 °C 1015.1 hPa SSW 9.3 km/h 9.7 km/h 94 % 0 mm
01:31 10.2 °C 9.2 °C 1015.1 hPa SSW 8.9 km/h 14.8 km/h 94 % 0 mm
01:36 10.2 °C 9.2 °C 1015.1 hPa SSW 5.8 km/h 14.8 km/h 94 % 0 mm
01:41 10.2 °C 9.2 °C 1015.1 hPa North 0.5 km/h 5.6 km/h 94 % 0 mm
01:46 10.2 °C 9.2 °C 1014.8 hPa SSW 3.5 km/h 5.6 km/h 94 % 0 mm
01:51 10.2 °C 9.2 °C 1014.8 hPa South 7.4 km/h 14.8 km/h 94 % 0 mm
01:56 10.1 °C 9.2 °C 1014.8 hPa North 10.1 km/h 14.8 km/h 94 % 0 mm
02:02 10.1 °C 9.1 °C 1014.8 hPa North 5.1 km/h 11.1 km/h 94 % 0 mm
02:07 10.1 °C 9.1 °C 1014.8 hPa South 3.9 km/h 7.4 km/h 94 % 0 mm
02:12 10.1 °C 9.3 °C 1014.4 hPa South 5.3 km/h 6.4 km/h 95 % 0 mm
02:17 9.9 °C 9 °C 1014.4 hPa South 4.5 km/h 11.1 km/h 94 % 0 mm
02:22 9.9 °C 9.1 °C 1014.4 hPa South 4.7 km/h 6.4 km/h 95 % 0 mm
02:27 9.8 °C 8.8 °C 1014.4 hPa South 9 km/h 9 km/h 94 % 0 mm
02:32 9.7 °C 8.9 °C 1014.1 hPa North 5.1 km/h 11.1 km/h 95 % 0 mm
02:34 9.7 °C 8.9 °C 1014.1 hPa South 4.7 km/h 4.8 km/h 95 % 0 mm
02:39 9.7 °C 8.9 °C 1014.1 hPa South 4.7 km/h 9.3 km/h 95 % 0 mm
02:44 9.7 °C 8.9 °C 1014.1 hPa South 5 km/h 8 km/h 95 % 0 mm
02:49 9.6 °C 8.8 °C 1014.1 hPa North 4.5 km/h 5.6 km/h 95 % 0 mm
02:54 9.6 °C 8.8 °C 1014.1 hPa South 4.3 km/h 5.6 km/h 95 % 0 mm
02:59 9.6 °C 8.8 °C 1014.1 hPa South 6.6 km/h 11.1 km/h 95 % 0 mm
03:04 9.4 °C 8.7 °C 1013.8 hPa South 3.9 km/h 5.6 km/h 95 % 0 mm
03:09 9.5 °C 8.7 °C 1013.8 hPa South 5.5 km/h 5.6 km/h 95 % 0 mm
03:14 9.4 °C 8.7 °C 1013.8 hPa North 4.2 km/h 5.6 km/h 95 % 0 mm
03:24 9.4 °C 8.7 °C 1013.8 hPa South 2.4 km/h 5.6 km/h 95 % 0 mm
03:29 9.5 °C 8.7 °C 1013.8 hPa North 2.4 km/h 5.6 km/h 95 % 0 mm
03:34 9.5 °C 8.7 °C 1013.8 hPa North 3.1 km/h 5.6 km/h 95 % 0 mm
03:39 9.4 °C 8.7 °C 1013.8 hPa North 2.4 km/h 3.7 km/h 95 % 0 mm
03:44 9.4 °C 8.6 °C 1013.8 hPa North 4.5 km/h 9.3 km/h 95 % 0 mm
03:49 9.4 °C 8.6 °C 1013.8 hPa South 3.9 km/h 5.6 km/h 95 % 0 mm
03:54 9.4 °C 8.8 °C 1013.8 hPa North 4.5 km/h 9.3 km/h 96 % 0 mm
03:59 9.4 °C 8.8 °C 1013.8 hPa South 5 km/h 5.6 km/h 96 % 0 mm
04:04 9.4 °C 8.8 °C 1013.8 hPa North 5.1 km/h 5.1 km/h 96 % 0 mm
04:05 9.4 °C 8.8 °C 1013.8 hPa South 5.3 km/h 5.6 km/h 96 % 0 mm
04:10 9.5 °C 8.9 °C 1013.8 hPa North 5.6 km/h 9.3 km/h 96 % 0 mm
04:15 9.5 °C 8.9 °C 1013.8 hPa North 7.4 km/h 11.1 km/h 96 % 0 mm
04:20 9.4 °C 8.8 °C 1013.8 hPa North 4.8 km/h 5.6 km/h 96 % 0 mm
04:25 9.5 °C 8.9 °C 1013.8 hPa South 5.6 km/h 9.3 km/h 96 % 0 mm
04:30 9.5 °C 8.9 °C 1013.8 hPa South 3.9 km/h 5.6 km/h 96 % 0 mm
04:35 9.5 °C 8.9 °C 1014.1 hPa North 2.1 km/h 9.7 km/h 96 % 0 mm
04:40 9.5 °C 8.9 °C 1014.1 hPa North 4.3 km/h 5.6 km/h 96 % 0 mm
04:45 9.4 °C 8.8 °C 1014.1 hPa North 6.4 km/h 8 km/h 96 % 0 mm
04:50 9.5 °C 8.9 °C 1014.4 hPa North 12.4 km/h 16.7 km/h 96 % 0 mm
04:55 9.5 °C 8.9 °C 1014.4 hPa SSW 7.9 km/h 16.7 km/h 96 % 0 mm
05:00 9.6 °C 8.9 °C 1014.8 hPa North 8.7 km/h 13 km/h 96 % 0 mm
05:05 9.6 °C 8.9 °C 1014.4 hPa SSW 9.8 km/h 16.7 km/h 96 % 0 mm
05:10 9.6 °C 9 °C 1014.8 hPa SSW 10.8 km/h 13 km/h 96 % 0 mm
05:15 9.7 °C 9.1 °C 1014.8 hPa SSW 9.7 km/h 18.5 km/h 96 % 0 mm
05:20 9.7 °C 9.1 °C 1014.8 hPa SSW 7.6 km/h 14.8 km/h 96 % 0 mm
05:25 9.8 °C 9.2 °C 1015.1 hPa SSW 6.1 km/h 11.3 km/h 96 % 0 mm
05:30 9.8 °C 9.2 °C 1015.1 hPa South 12.2 km/h 18.5 km/h 96 % 0 mm
05:35 9.9 °C 9.3 °C 1015.1 hPa North 10 km/h 18.5 km/h 96 % 0 mm
05:40 10.1 °C 9.4 °C 1015.1 hPa SSW 10.3 km/h 14.8 km/h 96 % 0 mm
05:45 10.1 °C 9.5 °C 1015.1 hPa SSW 3.5 km/h 6.4 km/h 96 % 0 mm
05:50 10.2 °C 9.6 °C 1015.1 hPa South 8.2 km/h 18.5 km/h 96 % 0 mm
05:55 10.1 °C 9.5 °C 1015.1 hPa North 9 km/h 12.9 km/h 96 % 0 mm
06:00 10.2 °C 9.6 °C 1015.1 hPa South 4.7 km/h 7.4 km/h 96 % 0 mm
06:05 10.3 °C 9.7 °C 1015.1 hPa South 8.7 km/h 13 km/h 96 % 0 mm
06:10 10.3 °C 9.7 °C 1015.1 hPa North 10 km/h 14.8 km/h 96 % 0 mm
06:15 10.4 °C 9.8 °C 1015.1 hPa South 10.3 km/h 14.8 km/h 96 % 0 mm
06:20 10.4 °C 9.8 °C 1015.5 hPa South 7.1 km/h 13 km/h 96 % 0 mm
06:25 10.5 °C 9.9 °C 1015.1 hPa SSE 10.5 km/h 13 km/h 96 % 0 mm
06:30 10.5 °C 9.9 °C 1015.1 hPa SSE 4.2 km/h 7.4 km/h 96 % 0 mm
06:35 10.6 °C 9.9 °C 1015.5 hPa South 10 km/h 13 km/h 96 % 0 mm
06:40 10.6 °C 9.9 °C 1015.5 hPa South 9.7 km/h 16.7 km/h 96 % 0 mm
06:45 10.6 °C 9.9 °C 1015.1 hPa North 3.9 km/h 9.3 km/h 96 % 0 mm
06:50 10.6 °C 10 °C 1015.5 hPa South 9.3 km/h 11.1 km/h 96 % 0 mm
06:55 10.7 °C 10.2 °C 1015.5 hPa North 4.5 km/h 6.4 km/h 97 % 0 mm
07:00 10.7 °C 10.2 °C 1015.5 hPa SSE 6.6 km/h 11.3 km/h 97 % 0 mm
07:05 10.7 °C 10.3 °C 1015.1 hPa SSE 9.2 km/h 13 km/h 97 % 0 mm
07:10 10.6 °C 10 °C 1015.1 hPa SE 3.1 km/h 9.3 km/h 96 % 0 mm
07:15 10.6 °C 10 °C 1015.5 hPa SSE 8.2 km/h 14.8 km/h 96 % 0 mm
07:20 10.7 °C 10.2 °C 1015.5 hPa North 7.9 km/h 14.8 km/h 97 % 0 mm
07:25 10.7 °C 10.2 °C 1015.5 hPa North 10.9 km/h 16.7 km/h 97 % 0 mm
07:30 10.7 °C 10.3 °C 1015.5 hPa SSE 8.4 km/h 16.7 km/h 97 % 0 mm
07:35 10.7 °C 10.3 °C 1015.5 hPa North 11.9 km/h 14.8 km/h 97 % 0 mm
07:40 10.7 °C 10.3 °C 1015.8 hPa North 8.5 km/h 13 km/h 97 % 0 mm
07:45 10.7 °C 10.3 °C 1015.8 hPa North 8.2 km/h 9.3 km/h 97 % 0 mm
07:50 10.7 °C 10.3 °C 1015.8 hPa North 7.2 km/h 11.1 km/h 97 % 0 mm
07:55 10.7 °C 10.2 °C 1015.8 hPa North 10.9 km/h 14.8 km/h 97 % 0 mm
08:00 10.6 °C 10 °C 1015.8 hPa North 7.7 km/h 11.3 km/h 96 % 0 mm
08:05 10.6 °C 10.2 °C 1015.8 hPa North 11.9 km/h 16.7 km/h 97 % 0 mm
08:10 10.6 °C 10.2 °C 1015.8 hPa North 4.8 km/h 7.4 km/h 97 % 0 mm
08:15 10.7 °C 10.2 °C 1015.8 hPa North 6.3 km/h 11.1 km/h 97 % 0 mm
08:20 10.8 °C 10.3 °C 1015.8 hPa North 7.2 km/h 11.1 km/h 97 % 0 mm
08:25 10.8 °C 10.3 °C 1015.8 hPa South 7.1 km/h 11.1 km/h 97 % 0 mm
08:30 10.8 °C 10.3 °C 1015.8 hPa South 10.6 km/h 16.7 km/h 97 % 0 mm
08:35 10.8 °C 10.4 °C 1015.8 hPa North 5.1 km/h 9.3 km/h 97 % 0 mm
08:40 10.8 °C 10.4 °C 1015.8 hPa South 7.6 km/h 12.9 km/h 97 % 0 mm
08:45 10.8 °C 10.3 °C 1015.8 hPa South 15.1 km/h 15.1 km/h 97 % 0 mm
08:50 10.8 °C 10.4 °C 1015.8 hPa South 10.6 km/h 14.8 km/h 97 % 0 mm
08:55 10.9 °C 10.4 °C 1016.1 hPa South 5 km/h 13 km/h 97 % 0 mm
09:00 11 °C 10.6 °C 1016.1 hPa North 7.6 km/h 12.9 km/h 97 % 0 mm
09:05 11 °C 10.6 °C 1016.1 hPa South 12.6 km/h 14.8 km/h 97 % 0 mm
09:10 10.9 °C 10.5 °C 1016.1 hPa North 6 km/h 14.8 km/h 97 % 0 mm
09:15 11 °C 10.6 °C 1016.1 hPa South 8.5 km/h 9.3 km/h 97 % 0 mm
09:25 11 °C 10.6 °C 1016.1 hPa South 12.7 km/h 13 km/h 97 % 0 mm
09:30 10.9 °C 10.3 °C 1016.1 hPa North 8.5 km/h 16.7 km/h 96 % 0 mm
09:35 11 °C 10.6 °C 1016.1 hPa South 6.4 km/h 7.4 km/h 97 % 0 mm
09:40 11 °C 10.6 °C 1016.1 hPa South 10.9 km/h 16.7 km/h 97 % 0 mm
09:45 10.9 °C 10.5 °C 1016.1 hPa South 11.6 km/h 14.8 km/h 97 % 0 mm
09:50 11.1 °C 10.6 °C 1016.1 hPa SSW 14.5 km/h 16.1 km/h 97 % 0 mm
09:55 11.1 °C 10.4 °C 1016.1 hPa North 10.1 km/h 14.8 km/h 96 % 0 mm
10:00 11.3 °C 10.8 °C 1016.1 hPa South 5.6 km/h 9.3 km/h 97 % 0 mm
10:05 11.5 °C 10.9 °C 1016.1 hPa North 10.9 km/h 11.1 km/h 96 % 0 mm
10:10 11.5 °C 10.9 °C 1016.1 hPa South 6 km/h 8 km/h 96 % 0 mm
10:15 11.7 °C 11.1 °C 1015.8 hPa South 7.2 km/h 9.3 km/h 96 % 0 mm
10:20 11.8 °C 11.2 °C 1015.8 hPa North 5.5 km/h 9.3 km/h 96 % 0 mm
10:25 11.9 °C 11.1 °C 1015.8 hPa South 6.4 km/h 7.4 km/h 95 % 0 mm
10:30 12.3 °C 11.7 °C 1015.8 hPa South 8.7 km/h 9.7 km/h 96 % 0 mm
10:35 12.4 °C 11.4 °C 1015.5 hPa South 6.9 km/h 11.1 km/h 94 % 0 mm
10:40 12.8 °C 11.8 °C 1015.5 hPa South 4.8 km/h 9.3 km/h 94 % 0 mm
10:46 13.3 °C 12.2 °C 1015.5 hPa SSE 10.9 km/h 12.9 km/h 93 % 0 mm
10:50 13.6 °C 12 °C 1015.8 hPa SSE 9.2 km/h 13 km/h 90 % 0 mm
10:55 13.8 °C 11.7 °C 1015.8 hPa North 13.4 km/h 16.7 km/h 87 % 0 mm
11:00 13.9 °C 11.4 °C 1015.8 hPa SSW 6 km/h 18.5 km/h 85 % 0 mm
11:05 14 °C 11.2 °C 1015.8 hPa SSW 5.8 km/h 14.8 km/h 83 % 0 mm
11:10 14.5 °C 11.7 °C 1015.8 hPa South 9.3 km/h 13 km/h 83 % 0 mm
11:15 14.7 °C 10.9 °C 1015.8 hPa South 12.7 km/h 14.5 km/h 78 % 0 mm
11:20 15 °C 11.2 °C 1015.8 hPa SSE 10.6 km/h 14.8 km/h 78 % 0 mm
11:25 15.2 °C 10.6 °C 1015.8 hPa South 12.2 km/h 18.5 km/h 74 % 0 mm
11:30 15.2 °C 10.6 °C 1015.8 hPa South 10.5 km/h 18.5 km/h 74 % 0 mm
11:35 15.2 °C 10.6 °C 1015.8 hPa South 19.6 km/h 27.8 km/h 74 % 0 mm
11:40 15.4 °C 10.4 °C 1015.8 hPa North 15 km/h 19.3 km/h 72 % 0 mm
11:45 15.8 °C 10.8 °C 1015.8 hPa SSW 13.5 km/h 18.5 km/h 72 % 0 mm
11:50 15.9 °C 10.5 °C 1015.8 hPa SSE 16.4 km/h 19.3 km/h 70 % 0 mm
11:55 15.9 °C 10.4 °C 1015.8 hPa South 11.6 km/h 19.3 km/h 70 % 0 mm
12:00 16.2 °C 10.5 °C 1015.5 hPa SSE 11.1 km/h 18.5 km/h 69 % 0 mm
12:05 16.6 °C 10.4 °C 1015.5 hPa SSW 14.6 km/h 18.5 km/h 67 % 0 mm
12:10 16.8 °C 10.6 °C 1015.5 hPa South 12.9 km/h 16.7 km/h 67 % 0 mm
12:15 16.9 °C 10.3 °C 1015.5 hPa South 12.6 km/h 16.1 km/h 65 % 0 mm
12:20 17 °C 9.9 °C 1015.1 hPa South 10.8 km/h 18.5 km/h 63 % 0 mm
12:25 17.1 °C 10.2 °C 1015.1 hPa South 9.3 km/h 11.1 km/h 64 % 0 mm
12:30 17.4 °C 10.6 °C 1015.1 hPa SSE 7.4 km/h 13 km/h 64 % 0 mm
12:35 17.8 °C 10.2 °C 1015.1 hPa South 13.5 km/h 13.5 km/h 61 % 0 mm
12:40 17.8 °C 9.9 °C 1015.1 hPa SSW 15 km/h 24.1 km/h 60 % 0 mm
12:45 17.8 °C 10.2 °C 1015.1 hPa SSW 18 km/h 22.5 km/h 61 % 0 mm
12:50 17.9 °C 9.8 °C 1014.8 hPa South 10.3 km/h 13 km/h 59 % 0 mm
12:55 18.1 °C 9.9 °C 1014.8 hPa South 11.7 km/h 18.5 km/h 59 % 0 mm
13:01 18.4 °C 9.8 °C 1014.8 hPa SW 11.6 km/h 22.5 km/h 57 % 0 mm
13:06 18.4 °C 9.2 °C 1014.8 hPa SSW 6.6 km/h 13 km/h 55 % 0 mm
13:11 18.4 °C 9.2 °C 1014.8 hPa South 8.4 km/h 14.8 km/h 55 % 0 mm
13:16 18.4 °C 9.2 °C 1014.8 hPa SE 13.5 km/h 18.5 km/h 55 % 0 mm
13:21 18.7 °C 8.9 °C 1014.8 hPa SW 14 km/h 18.5 km/h 53 % 0 mm
13:26 18.9 °C 8.9 °C 1015.1 hPa South 12.6 km/h 18.5 km/h 52 % 0 mm
13:31 18.9 °C 8.8 °C 1014.8 hPa SSW 9.8 km/h 13 km/h 52 % 0 mm
13:36 19.1 °C 9 °C 1014.8 hPa SSW 9.2 km/h 13 km/h 52 % 0 mm
13:41 19 °C 8.6 °C 1014.8 hPa SSW 9 km/h 17.7 km/h 51 % 0 mm
13:46 19.1 °C 8.7 °C 1014.8 hPa South 9.8 km/h 16.7 km/h 51 % 0 mm
13:51 19.2 °C 8.6 °C 1014.8 hPa SSE 11.4 km/h 14.8 km/h 50 % 0 mm
13:56 19.2 °C 7.9 °C 1014.8 hPa SSE 9.7 km/h 14.8 km/h 48 % 0 mm
14:01 19.2 °C 8.2 °C 1014.4 hPa South 11.9 km/h 16.7 km/h 49 % 0 mm
14:06 19.2 °C 7.6 °C 1014.8 hPa SW 15.3 km/h 20.4 km/h 47 % 0 mm
14:11 19.3 °C 7.7 °C 1014.8 hPa SSW 10.1 km/h 18.5 km/h 47 % 0 mm
14:16 19.4 °C 7.8 °C 1014.8 hPa South 12.2 km/h 18.5 km/h 47 % 0 mm
14:21 19.5 °C 7.9 °C 1014.4 hPa South 9.8 km/h 14.8 km/h 47 % 0 mm
14:26 19.6 °C 7.9 °C 1014.8 hPa South 12.4 km/h 18.5 km/h 47 % 0 mm
14:31 19.7 °C 8.1 °C 1014.8 hPa SSE 11.1 km/h 14.8 km/h 47 % 0 mm
14:36 19.7 °C 7.1 °C 1014.4 hPa South 8.4 km/h 11.3 km/h 44 % 0 mm
14:41 19.8 °C 7.2 °C 1014.4 hPa SSW 12.4 km/h 16.7 km/h 44 % 0 mm
14:46 19.7 °C 7.4 °C 1014.4 hPa South 17.1 km/h 20.4 km/h 45 % 0 mm
14:51 19.7 °C 7.7 °C 1014.4 hPa SSE 9.8 km/h 14.8 km/h 46 % 0 mm
14:56 20 °C 8 °C 1014.4 hPa SSE 8.2 km/h 14.8 km/h 46 % 0 mm
15:01 20.1 °C 7.8 °C 1014.1 hPa South 9.5 km/h 13 km/h 45 % 0 mm
15:06 20.2 °C 7.8 °C 1014.1 hPa South 6.8 km/h 13 km/h 45 % 0 mm
15:11 20.3 °C 7.6 °C 1014.1 hPa SW 10.3 km/h 14.8 km/h 44 % 0 mm
15:16 20.3 °C 7.6 °C 1014.1 hPa SSW 8.9 km/h 13 km/h 44 % 0 mm
15:21 20.3 °C 7.6 °C 1014.1 hPa South 8.9 km/h 14.8 km/h 44 % 0 mm
15:26 20.6 °C 7.9 °C 1014.1 hPa SSE 8.5 km/h 13 km/h 44 % 0 mm
15:31 20.6 °C 6.6 °C 1014.1 hPa SSW 9.3 km/h 13 km/h 40 % 0 mm
15:36 20.6 °C 6.8 °C 1014.1 hPa South 6.8 km/h 9.7 km/h 41 % 0 mm
15:41 20.6 °C 7.2 °C 1014.1 hPa SW 7.2 km/h 7.4 km/h 42 % 0 mm
15:46 20.7 °C 7.7 °C 1014.4 hPa SSW 8.7 km/h 14.8 km/h 43 % 0 mm
15:51 20.9 °C 7.2 °C 1014.4 hPa South 7.1 km/h 9.7 km/h 41 % 0 mm
15:56 21 °C 6.9 °C 1014.4 hPa South 10 km/h 14.8 km/h 40 % 0 mm
16:01 21.1 °C 6.9 °C 1014.4 hPa South 7.9 km/h 11.1 km/h 40 % 0 mm
16:06 21.2 °C 6.7 °C 1014.4 hPa South 14.3 km/h 18.5 km/h 39 % 0 mm
16:11 21 °C 6.9 °C 1014.4 hPa South 7.7 km/h 14.8 km/h 40 % 0 mm
16:16 20.8 °C 6.7 °C 1014.4 hPa South 12.2 km/h 18.5 km/h 40 % 0 mm
16:21 20.8 °C 7.1 °C 1014.4 hPa South 8.5 km/h 14.8 km/h 41 % 0 mm
16:26 20.8 °C 6.7 °C 1014.4 hPa South 10.3 km/h 13 km/h 40 % 0 mm
16:31 20.7 °C 7 °C 1014.4 hPa South 7.7 km/h 14.8 km/h 41 % 0 mm
16:36 20.7 °C 6.9 °C 1014.4 hPa South 6.9 km/h 14.5 km/h 41 % 0 mm
16:41 20.5 °C 6.8 °C 1014.4 hPa South 11.7 km/h 16.7 km/h 41 % 0 mm
16:46 20.4 °C 6.7 °C 1014.4 hPa South 11.7 km/h 16.7 km/h 41 % 0 mm
16:51 20.4 °C 7.1 °C 1014.4 hPa SSW 10.1 km/h 18.5 km/h 42 % 0 mm
16:56 20.4 °C 6.7 °C 1014.4 hPa SSW 13.4 km/h 16.7 km/h 41 % 0 mm
17:01 20.3 °C 6.6 °C 1014.8 hPa South 12.7 km/h 14.8 km/h 41 % 0 mm
17:06 20.3 °C 6.6 °C 1014.8 hPa SSW 13.8 km/h 20.4 km/h 41 % 0 mm
17:11 20.2 °C 6.9 °C 1014.8 hPa South 7.6 km/h 14.8 km/h 42 % 0 mm
17:16 20.2 °C 6.8 °C 1014.8 hPa South 9.2 km/h 13 km/h 42 % 0 mm
17:21 20.2 °C 7.2 °C 1014.8 hPa SSE 6.9 km/h 9.3 km/h 43 % 0 mm
17:26 20 °C 7.1 °C 1015.1 hPa South 10.9 km/h 13 km/h 43 % 0 mm
17:31 19.9 °C 7.3 °C 1015.1 hPa South 9.8 km/h 13 km/h 44 % 0 mm
17:36 19.7 °C 7.1 °C 1015.1 hPa South 12.7 km/h 16.7 km/h 44 % 0 mm
17:41 19.4 °C 6.9 °C 1015.1 hPa South 12.4 km/h 18.5 km/h 44 % 0 mm
17:46 19.3 °C 7.1 °C 1015.1 hPa South 7.7 km/h 13 km/h 45 % 0 mm
17:51 19.1 °C 7.2 °C 1015.1 hPa South 8.2 km/h 14.8 km/h 46 % 0 mm
17:56 18.9 °C 7.3 °C 1015.5 hPa South 6.4 km/h 13 km/h 47 % 0 mm
18:01 18.7 °C 7.4 °C 1015.5 hPa SSE 6.8 km/h 12.9 km/h 48 % 0 mm
18:06 18.4 °C 7.5 °C 1015.5 hPa South 6.3 km/h 18.5 km/h 49 % 0 mm
18:11 18.1 °C 7.5 °C 1015.5 hPa South 4.7 km/h 7.4 km/h 50 % 0 mm
18:16 17.8 °C 7.3 °C 1015.5 hPa South 8.4 km/h 16.7 km/h 50 % 0 mm
18:21 17.6 °C 7.3 °C 1015.8 hPa South 4.8 km/h 5.6 km/h 51 % 0 mm
18:26 17.3 °C 7.4 °C 1015.8 hPa South 3.7 km/h 9.3 km/h 52 % 0 mm
18:31 17 °C 7.6 °C 1015.8 hPa South 2.9 km/h 9.3 km/h 54 % 0 mm
18:36 16.8 °C 7.7 °C 1015.8 hPa North 7.1 km/h 11.1 km/h 55 % 0 mm
18:41 16.7 °C 7.6 °C 1015.8 hPa South 7.9 km/h 9.3 km/h 55 % 0 mm
18:46 16.5 °C 7.7 °C 1016.1 hPa South 7.6 km/h 14.8 km/h 56 % 0 mm
18:51 16.2 °C 8.2 °C 1016.1 hPa South 10.6 km/h 14.8 km/h 59 % 0 mm
18:56 15.9 °C 8.4 °C 1016.1 hPa South 11.1 km/h 11.3 km/h 61 % 0 mm
19:01 15.7 °C 8.9 °C 1016.5 hPa SSE 8.9 km/h 14.8 km/h 64 % 0 mm
19:06 15.4 °C 9.1 °C 1016.5 hPa South 8.4 km/h 16.7 km/h 66 % 0 mm
19:11 15.1 °C 9.2 °C 1016.5 hPa South 8.4 km/h 19.3 km/h 68 % 0 mm
19:16 14.9 °C 9.3 °C 1016.5 hPa South 10.9 km/h 17.7 km/h 69 % 0 mm
19:21 14.8 °C 9.3 °C 1016.5 hPa SSE 7.6 km/h 14.8 km/h 70 % 0 mm
19:26 14.6 °C 9.6 °C 1016.5 hPa SSE 10.6 km/h 18.5 km/h 72 % 0 mm
19:31 14.4 °C 9.4 °C 1016.5 hPa South 7.6 km/h 11.1 km/h 72 % 0 mm
19:36 14.3 °C 9.5 °C 1016.5 hPa South 8.5 km/h 13 km/h 73 % 0 mm
19:41 14.1 °C 9.6 °C 1016.5 hPa South 11.3 km/h 18.5 km/h 74 % 0 mm
19:46 14 °C 9.4 °C 1016.8 hPa South 7.9 km/h 14.8 km/h 74 % 0 mm
19:51 13.8 °C 9.5 °C 1016.8 hPa North 7.1 km/h 13 km/h 75 % 0 mm
19:56 13.7 °C 9.5 °C 1016.8 hPa South 10.8 km/h 18.5 km/h 76 % 0 mm
20:01 13.5 °C 9.3 °C 1016.8 hPa South 6 km/h 14.8 km/h 76 % 0 mm
20:06 13.3 °C 9.4 °C 1017.2 hPa South 7.4 km/h 13 km/h 77 % 0 mm
20:11 13.2 °C 9.4 °C 1016.8 hPa South 4.7 km/h 11.1 km/h 78 % 0 mm
20:16 13 °C 9.3 °C 1017.2 hPa South 6.1 km/h 11.1 km/h 78 % 0 mm
20:21 12.9 °C 9.3 °C 1017.2 hPa North 4.8 km/h 8 km/h 79 % 0 mm
20:26 12.7 °C 9.3 °C 1017.2 hPa South 6.3 km/h 12.9 km/h 80 % 0 mm
20:31 12.6 °C 9.2 °C 1017.2 hPa South 7.1 km/h 11.1 km/h 80 % 0 mm
20:36 12.4 °C 9.3 °C 1017.2 hPa North 7.4 km/h 13 km/h 81 % 0 mm
20:41 12.3 °C 9.2 °C 1017.2 hPa South 6.6 km/h 9.3 km/h 81 % 0 mm
20:46 12.2 °C 9.2 °C 1017.2 hPa South 7.7 km/h 11.3 km/h 82 % 0 mm
20:51 12.1 °C 9.1 °C 1017.2 hPa North 8.7 km/h 11.1 km/h 82 % 0 mm
20:56 12.1 °C 9.3 °C 1017.2 hPa South 5.3 km/h 13 km/h 83 % 0 mm
21:01 11.9 °C 9.2 °C 1017.2 hPa South 4.7 km/h 6.4 km/h 83 % 0 mm
21:06 11.8 °C 9.1 °C 1017.5 hPa South 5 km/h 9.7 km/h 83 % 0 mm
21:11 11.8 °C 9.2 °C 1017.5 hPa South 3.2 km/h 6.4 km/h 84 % 0 mm
21:16 11.7 °C 9.1 °C 1017.5 hPa South 2.9 km/h 5.6 km/h 84 % 0 mm
21:21 11.6 °C 9 °C 1017.5 hPa South 5.3 km/h 7.4 km/h 84 % 0 mm
21:26 11.5 °C 8.9 °C 1017.5 hPa North 3.2 km/h 6.4 km/h 84 % 0 mm
21:31 11.4 °C 8.9 °C 1017.5 hPa North 5.6 km/h 5.6 km/h 85 % 0 mm
21:36 11.3 °C 8.9 °C 1017.5 hPa South 4.8 km/h 5.6 km/h 85 % 0 mm
21:41 11.2 °C 8.8 °C 1017.5 hPa South 3.9 km/h 6.4 km/h 85 % 0 mm
21:46 11.1 °C 8.8 °C 1017.5 hPa North 4.2 km/h 5.6 km/h 86 % 0 mm
21:51 11.1 °C 8.8 °C 1017.5 hPa North 6.6 km/h 9.7 km/h 86 % 0 mm
21:56 11 °C 8.9 °C 1017.5 hPa North 5.8 km/h 8 km/h 87 % 0 mm
22:01 11 °C 8.9 °C 1017.8 hPa North 6.3 km/h 9.3 km/h 87 % 0 mm
22:06 11 °C 8.9 °C 1017.8 hPa North 3.9 km/h 7.4 km/h 87 % 0 mm
22:11 11 °C 8.9 °C 1017.8 hPa North 7.6 km/h 11.1 km/h 87 % 0 mm
22:16 11 °C 8.9 °C 1017.8 hPa South 4 km/h 7.4 km/h 87 % 0 mm
22:21 10.9 °C 8.9 °C 1017.5 hPa North 6.1 km/h 9.3 km/h 87 % 0 mm
22:26 10.9 °C 9.1 °C 1017.8 hPa South 4.7 km/h 7.4 km/h 88 % 0 mm
22:31 10.9 °C 9 °C 1017.8 hPa South 10.3 km/h 14.8 km/h 88 % 0 mm
22:36 10.9 °C 9 °C 1017.8 hPa North 7.2 km/h 13 km/h 88 % 0 mm
22:41 10.9 °C 9 °C 1017.8 hPa South 4.7 km/h 9.3 km/h 88 % 0 mm
22:46 10.8 °C 8.9 °C 1017.8 hPa South 1.9 km/h 7.4 km/h 88 % 0 mm
22:51 10.8 °C 8.9 °C 1017.5 hPa North 2.1 km/h 5.6 km/h 88 % 0 mm
22:56 10.8 °C 8.9 °C 1017.8 hPa North 3.7 km/h 5.6 km/h 88 % 0 mm
23:01 10.7 °C 8.8 °C 1017.8 hPa South 4 km/h 5.6 km/h 88 % 0 mm
23:06 10.7 °C 8.8 °C 1017.8 hPa South 4.5 km/h 5.6 km/h 88 % 0 mm
23:11 10.6 °C 8.9 °C 1017.5 hPa North 4 km/h 5.6 km/h 89 % 0 mm
23:16 10.6 °C 8.9 °C 1017.8 hPa South 3.1 km/h 7.4 km/h 89 % 0 mm
23:21 10.6 °C 8.9 °C 1017.8 hPa South 2.6 km/h 7.4 km/h 89 % 0 mm
23:26 10.7 °C 8.9 °C 1017.8 hPa South 5.6 km/h 7.4 km/h 89 % 0 mm
23:31 10.7 °C 9 °C 1017.8 hPa North 2.9 km/h 11.1 km/h 89 % 0 mm
23:36 10.8 °C 9.1 °C 1017.8 hPa South 5.3 km/h 5.6 km/h 89 % 0 mm
23:43 10.9 °C 9.2 °C 1017.8 hPa North 5.1 km/h 7.4 km/h 89 % 0 mm
23:48 11 °C 9.3 °C 1017.5 hPa North 4 km/h 7.4 km/h 89 % 0 mm
23:53 11 °C 9.3 °C 1017.5 hPa South 7.6 km/h 11.3 km/h 89 % 0 mm
23:58 11.1 °C 9.3 °C 1017.5 hPa North 5.6 km/h 6.4 km/h 89 % 0 mm
Ararat Weather
Compliments of Weather Underground - 2.25 mb
Click here to send mail.


ABOUT

Live weather data from Ararat, Victoria, Australia, 3377
Data uploaded from Cumulus every 5 minutes to Weather Underground.
This site then downloads the raw data for formatting and display.
Metric and imperial data can be displayed. Graphs and historical data available.
Includes Sun and Moon times and rain image live from BOM.

Check out Ararat Weather on Facebook, Twitter and Google +

Help support ongoing costs by checking out the ads





Follow @AraratWeather